Time;durP1;ratioP1;P1;durP2;ratioP2;P2;SDS_P1;SDS_P2;PMS_P1;PMS_P2;Temp;Humidity;BMP_temperature;BMP_pressure;BME280_temperature;BME280_humidity;BME280_pressure;Samples;Min_cycle;Max_cycle;Signal;HPM_P1;HPM_P2
2022/08/12 00:44:25;;;;;;;5.23;3.67;;;;;;;;;;5033601;28;20428;-59
2022/08/12 00:46:55;;;;;;;4.30;4.00;;;;;;;;;;5049058;28;20196;-60
2022/08/12 00:49:23;;;;;;;4.90;4.50;;;;;;;;;;5030297;28;20179;-59
2022/08/12 00:52:12;;;;;;;4.73;4.30;;;;;;;;;;5040139;28;20716;-59
2022/08/12 00:54:51;;;;;;;4.73;4.33;;;;;;;;;;5056537;28;20252;-59
2022/08/12 00:57:19;;;;;;;5.20;4.70;;;;;;;;;;5048670;28;20779;-57
2022/08/12 00:59:47;;;;;;;4.33;4.03;;;;;;;;;;5047422;28;20634;-59
2022/08/12 01:02:22;;;;;;;4.40;4.10;;;;;;;;;;5045256;28;20219;-60
2022/08/12 01:13:12;;;;;;;5.30;4.67;;;;;;;;;;5011218;28;20195;-59
2022/08/12 01:15:39;;;;;;;5.00;4.30;;;;;;;;;;5045004;28;20684;-59
2022/08/12 01:18:05;;;;;;;3.50;3.20;;;;;;;;;;5039736;28;20657;-60
2022/08/12 01:20:54;;;;;;;4.17;3.87;;;;;;;;;;5059028;28;20188;-59
2022/08/12 01:23:53;;;;;;;5.00;4.60;;;;;;;;;;5039368;28;20228;-59
2022/08/12 01:26:22;;;;;;;5.90;4.50;;;;;;;;;;4996716;28;20189;-59
2022/08/12 01:28:50;;;;;;;4.40;4.10;;;;;;;;;;5047345;28;20185;-59
2022/08/12 01:31:17;;;;;;;5.30;4.40;;;;;;;;;;5044105;28;20201;-58
2022/08/12 01:33:50;;;;;;;4.40;4.00;;;;;;;;;;5048623;28;20735;-59
2022/08/12 01:36:17;;;;;;;4.87;4.47;;;;;;;;;;5044634;28;20185;-59
2022/08/12 01:38:46;;;;;;;5.40;4.90;;;;;;;;;;5047579;28;20204;-58
2022/08/12 01:41:15;;;;;;;5.13;4.63;;;;;;;;;;5043930;28;20679;-59
2022/08/12 01:43:41;;;;;;;5.30;4.80;;;;;;;;;;5045634;28;20181;-59
2022/08/12 01:46:36;;;;;;;4.97;4.57;;;;;;;;;;5044151;28;20189;-59
2022/08/12 01:49:21;;;;;;;4.63;4.23;;;;;;;;;;5049278;28;20246;-59
2022/08/12 01:51:49;;;;;;;6.40;4.60;;;;;;;;;;5055160;28;20644;-59
2022/08/12 01:54:16;;;;;;;5.13;4.63;;;;;;;;;;5035169;28;20198;-58
2022/08/12 01:56:55;;;;;;;6.47;4.87;;;;;;;;;;5037531;28;20174;-59
2022/08/12 01:59:46;;;;;;;4.77;4.37;;;;;;;;;;5040487;28;20185;-59
2022/08/12 02:02:32;;;;;;;4.87;4.50;;;;;;;;;;5042218;28;20182;-59
2022/08/12 02:11:16;;;;;;;5.53;3.80;;;;;;;;;;5048026;28;20288;-59
2022/08/12 02:13:48;;;;;;;4.70;4.30;;;;;;;;;;5042818;28;20197;-60
2022/08/12 02:16:14;;;;;;;4.13;3.83;;;;;;;;;;5038850;28;20185;-59
2022/08/12 02:18:48;;;;;;;3.90;3.50;;;;;;;;;;5036187;28;20232;-59
2022/08/12 02:21:20;;;;;;;5.67;4.80;;;;;;;;;;5046635;28;20189;-60
2022/08/12 02:23:47;;;;;;;6.67;4.90;;;;;;;;;;5034647;28;20250;-60
2022/08/12 02:26:14;;;;;;;5.50;4.30;;;;;;;;;;5048102;28;20188;-59
2022/08/12 02:28:41;;;;;;;4.40;4.00;;;;;;;;;;5042858;28;20193;-59
2022/08/12 02:31:08;;;;;;;5.30;4.33;;;;;;;;;;5044251;28;20196;-59
2022/08/12 02:33:36;;;;;;;6.37;5.00;;;;;;;;;;5047505;28;20246;-60
2022/08/12 02:36:03;;;;;;;4.57;4.17;;;;;;;;;;5044014;28;20244;-60
2022/08/12 02:38:30;;;;;;;5.27;4.87;;;;;;;;;;5047520;28;20197;-60
2022/08/12 02:40:58;;;;;;;4.17;3.87;;;;;;;;;;5060935;28;20188;-59
2022/08/12 02:43:33;;;;;;;5.07;4.57;;;;;;;;;;5044906;28;20192;-60
2022/08/12 02:46:05;;;;;;;4.70;4.30;;;;;;;;;;5046670;28;20184;-59
2022/08/12 02:48:37;;;;;;;4.70;4.17;;;;;;;;;;5047524;28;20677;-60
2022/08/12 02:51:05;;;;;;;4.53;4.13;;;;;;;;;;5046948;28;20216;-60
2022/08/12 02:53:33;;;;;;;4.63;4.23;;;;;;;;;;5046781;28;20181;-60
2022/08/12 02:56:03;;;;;;;5.00;4.60;;;;;;;;;;5048912;28;20193;-59
2022/08/12 02:58:31;;;;;;;5.90;5.30;;;;;;;;;;5046337;28;20551;-59
2022/08/12 03:01:00;;;;;;;6.53;4.40;;;;;;;;;;5045754;28;20169;-60
2022/08/12 03:03:28;;;;;;;5.30;4.90;;;;;;;;;;5051473;28;20177;-59
2022/08/12 03:05:58;;;;;;;5.27;4.77;;;;;;;;;;5046409;28;20717;-59
2022/08/12 03:08:34;;;;;;;6.20;4.60;;;;;;;;;;5047019;28;20223;-58
2022/08/12 03:11:08;;;;;;;4.80;4.40;;;;;;;;;;5057031;28;20207;-59
2022/08/12 03:13:37;;;;;;;4.57;4.17;;;;;;;;;;5046619;28;20621;-60
2022/08/12 03:16:04;;;;;;;4.90;4.50;;;;;;;;;;5046088;28;20219;-59
2022/08/12 03:18:37;;;;;;;4.67;4.37;;;;;;;;;;5049607;28;20232;-60
2022/08/12 03:21:03;;;;;;;4.07;3.77;;;;;;;;;;5045019;28;20177;-59
2022/08/12 03:23:30;;;;;;;5.07;4.60;;;;;;;;;;5036729;28;20191;-58
2022/08/12 03:25:57;;;;;;;4.50;4.10;;;;;;;;;;5040554;28;20169;-59
2022/08/12 03:31:09;;;;;;;7.17;6.23;;;;;;;;;;5046417;28;20253;-59
2022/08/12 03:33:37;;;;;;;5.23;4.73;;;;;;;;;;5050750;28;20176;-59
2022/08/12 03:36:05;;;;;;;5.70;4.93;;;;;;;;;;5046429;28;20489;-59
2022/08/12 03:38:35;;;;;;;4.70;4.20;;;;;;;;;;5045493;28;20628;-59
2022/08/12 04:00:34;;;;;;;4.80;4.37;;;;;;;;;;5049421;28;20208;-59
2022/08/12 04:03:00;;;;;;;4.47;4.07;;;;;;;;;;5045782;28;20546;-59
2022/08/12 04:05:31;;;;;;;6.33;4.50;;;;;;;;;;5020601;28;20332;-59
2022/08/12 04:07:58;;;;;;;5.23;4.83;;;;;;;;;;5060817;28;20213;-60
2022/08/12 04:13:15;;;;;;;5.23;4.83;;;;;;;;;;5049199;28;20209;-59
2022/08/12 04:13:20;;;;;;;4.47;4.17;;;;;;;;;;5047658;28;20174;-59
2022/08/12 04:15:46;;;;;;;6.33;5.00;;;;;;;;;;5048237;28;20256;-59
2022/08/12 04:18:14;;;;;;;4.53;4.13;;;;;;;;;;5051232;28;20578;-59
2022/08/12 04:20:47;;;;;;;5.17;4.60;;;;;;;;;;5046362;28;20189;-59
2022/08/12 04:23:16;;;;;;;8.27;7.50;;;;;;;;;;5044480;28;20174;-59
2022/08/12 04:25:43;;;;;;;5.57;4.83;;;;;;;;;;5047117;28;20678;-60
2022/08/12 04:28:10;;;;;;;5.07;4.57;;;;;;;;;;5050804;28;20252;-59
2022/08/12 04:30:36;;;;;;;5.10;4.60;;;;;;;;;;5048940;28;20216;-58
2022/08/12 04:33:03;;;;;;;6.03;4.80;;;;;;;;;;5050456;28;20189;-60
2022/08/12 04:35:30;;;;;;;6.13;4.43;;;;;;;;;;5049965;28;20432;-59
2022/08/12 04:37:57;;;;;;;5.30;4.83;;;;;;;;;;5050674;28;20174;-58
2022/08/12 04:40:24;;;;;;;7.50;4.87;;;;;;;;;;5032087;28;20181;-60
2022/08/12 04:42:50;;;;;;;5.07;4.67;;;;;;;;;;5044852;28;20178;-59
2022/08/12 04:45:17;;;;;;;6.33;4.60;;;;;;;;;;5038667;28;20200;-59
2022/08/12 04:47:43;;;;;;;5.53;4.63;;;;;;;;;;5042872;28;20194;-59
2022/08/12 04:50:10;;;;;;;4.77;4.37;;;;;;;;;;5048762;28;20193;-59
2022/08/12 04:52:36;;;;;;;7.17;6.67;;;;;;;;;;5037264;28;20666;-59
2022/08/12 04:55:03;;;;;;;5.10;4.60;;;;;;;;;;5041824;28;20767;-59
2022/08/12 04:57:29;;;;;;;5.53;5.03;;;;;;;;;;5029733;28;20204;-59
2022/08/12 04:59:55;;;;;;;5.03;4.53;;;;;;;;;;5048776;28;20181;-59
2022/08/12 05:02:21;;;;;;;7.13;6.60;;;;;;;;;;5049545;28;20963;-59
2022/08/12 05:04:48;;;;;;;5.20;4.70;;;;;;;;;;5045329;28;20250;-60
2022/08/12 05:07:14;;;;;;;4.63;4.20;;;;;;;;;;5049986;28;20220;-59
2022/08/12 05:09:40;;;;;;;5.70;5.10;;;;;;;;;;5047296;28;20501;-59
2022/08/12 05:12:07;;;;;;;4.77;4.37;;;;;;;;;;5022390;28;20189;-58
2022/08/12 05:14:33;;;;;;;5.43;4.87;;;;;;;;;;5046472;28;20197;-59
2022/08/12 05:16:59;;;;;;;6.97;4.63;;;;;;;;;;5045575;28;20664;-59
2022/08/12 05:19:25;;;;;;;5.77;5.27;;;;;;;;;;5045083;28;21183;-59
2022/08/12 05:21:51;;;;;;;4.57;4.17;;;;;;;;;;5047495;28;20185;-59
2022/08/12 05:24:17;;;;;;;6.73;5.23;;;;;;;;;;5044125;28;20186;-60
2022/08/12 05:26:44;;;;;;;5.90;5.30;;;;;;;;;;5044941;28;20185;-60
2022/08/12 05:29:15;;;;;;;7.13;4.77;;;;;;;;;;5047501;28;20300;-60
2022/08/12 05:31:42;;;;;;;6.43;4.73;;;;;;;;;;5048876;28;20178;-59
2022/08/12 05:34:10;;;;;;;5.50;5.00;;;;;;;;;;5039887;28;20209;-59
2022/08/12 05:36:36;;;;;;;7.00;4.67;;;;;;;;;;5044917;28;20556;-60
2022/08/12 05:39:02;;;;;;;5.37;4.87;;;;;;;;;;5045127;28;20181;-59
2022/08/12 05:41:28;;;;;;;5.53;5.03;;;;;;;;;;5020132;28;20266;-60
2022/08/12 05:43:56;;;;;;;5.00;4.60;;;;;;;;;;5043975;28;20216;-59
2022/08/12 05:46:23;;;;;;;5.00;4.60;;;;;;;;;;5039235;28;20181;-59
2022/08/12 05:48:50;;;;;;;5.77;5.07;;;;;;;;;;5042617;28;20651;-59
2022/08/12 05:51:16;;;;;;;5.87;5.37;;;;;;;;;;5043143;28;20184;-60
2022/08/12 05:53:43;;;;;;;5.97;5.27;;;;;;;;;;5021034;28;20185;-58
2022/08/12 05:56:19;;;;;;;5.90;4.63;;;;;;;;;;5026467;28;20220;-58
2022/08/12 05:58:46;;;;;;;5.90;5.40;;;;;;;;;;5047521;28;20177;-59
2022/08/12 06:01:13;;;;;;;5.23;4.67;;;;;;;;;;5040297;28;20188;-62
2022/08/12 06:03:40;;;;;;;5.67;5.17;;;;;;;;;;5031330;28;20202;-63
2022/08/12 06:06:06;;;;;;;6.07;4.63;;;;;;;;;;5035356;28;20258;-63
2022/08/12 06:08:35;;;;;;;6.93;5.03;;;;;;;;;;5046260;28;20182;-62
2022/08/12 06:11:03;;;;;;;6.33;5.67;;;;;;;;;;5045941;28;20208;-62
2022/08/12 06:13:29;;;;;;;6.10;4.93;;;;;;;;;;5047535;28;20193;-61
2022/08/12 06:15:56;;;;;;;7.00;5.97;;;;;;;;;;5026768;28;20203;-63
2022/08/12 06:18:22;;;;;;;5.50;5.00;;;;;;;;;;5049394;28;20179;-63
2022/08/12 06:20:49;;;;;;;5.10;4.60;;;;;;;;;;5047461;28;20300;-62
2022/08/12 06:23:15;;;;;;;4.87;4.47;;;;;;;;;;5038113;28;20939;-63
2022/08/12 06:25:42;;;;;;;6.50;5.10;;;;;;;;;;5051927;28;20635;-63
2022/08/12 06:28:20;;;;;;;5.67;5.07;;;;;;;;;;5039775;28;20195;-60
2022/08/12 06:30:46;;;;;;;9.23;4.77;;;;;;;;;;5021734;28;20181;-62
2022/08/12 06:33:12;;;;;;;6.17;4.70;;;;;;;;;;5041115;28;20177;-62
2022/08/12 06:35:40;;;;;;;5.57;4.70;;;;;;;;;;5044579;28;20209;-59
2022/08/12 06:38:14;;;;;;;5.57;4.50;;;;;;;;;;5036368;28;20167;-63
2022/08/12 06:43:26;;;;;;;5.50;5.00;;;;;;;;;;5036917;28;20233;-63
2022/08/12 06:45:52;;;;;;;5.37;4.97;;;;;;;;;;5020485;28;20428;-60
2022/08/12 06:48:18;;;;;;;5.00;4.60;;;;;;;;;;5034664;28;20672;-63
2022/08/12 06:50:45;;;;;;;5.37;4.87;;;;;;;;;;5045814;28;20179;-62
2022/08/12 06:53:11;;;;;;;5.30;4.60;;;;;;;;;;5031578;28;20274;-63
2022/08/12 06:55:38;;;;;;;4.93;4.50;;;;;;;;;;5027411;28;20212;-63
2022/08/12 06:58:05;;;;;;;6.07;4.30;;;;;;;;;;5046675;28;20186;-63
2022/08/12 07:00:33;;;;;;;5.50;5.00;;;;;;;;;;5049197;28;20733;-61
2022/08/12 07:03:00;;;;;;;4.70;4.30;;;;;;;;;;5045391;28;20622;-63
2022/08/12 07:05:26;;;;;;;4.53;4.23;;;;;;;;;;5053241;28;20211;-62
2022/08/12 07:07:52;;;;;;;7.13;5.03;;;;;;;;;;5052185;28;20187;-63
2022/08/12 07:10:22;;;;;;;5.63;4.43;;;;;;;;;;5053695;28;20231;-62
2022/08/12 07:12:53;;;;;;;5.63;5.10;;;;;;;;;;5033656;28;20184;-63
2022/08/12 07:15:21;;;;;;;5.07;4.30;;;;;;;;;;5027613;28;20272;-63
2022/08/12 07:17:47;;;;;;;5.17;4.77;;;;;;;;;;5047834;28;20606;-63
2022/08/12 07:20:21;;;;;;;5.00;4.50;;;;;;;;;;5047995;28;20223;-63
2022/08/12 07:22:48;;;;;;;5.60;4.17;;;;;;;;;;5029130;28;20181;-63
2022/08/12 07:25:30;;;;;;;4.53;4.20;;;;;;;;;;5050320;28;20547;-63
2022/08/12 07:27:59;;;;;;;3.97;3.67;;;;;;;;;;5033807;28;20264;-63
2022/08/12 07:30:25;;;;;;;4.07;3.77;;;;;;;;;;5024750;28;20197;-63
2022/08/12 07:32:51;;;;;;;4.37;3.97;;;;;;;;;;5030442;28;20193;-58
2022/08/12 07:35:18;;;;;;;4.80;4.20;;;;;;;;;;5046548;28;20197;-62
2022/08/12 07:37:46;;;;;;;4.63;4.23;;;;;;;;;;5029139;28;20180;-63
2022/08/12 07:40:12;;;;;;;5.30;4.63;;;;;;;;;;5045420;28;20174;-62
2022/08/12 07:42:39;;;;;;;4.80;3.97;;;;;;;;;;5053755;28;20618;-62
2022/08/12 07:45:06;;;;;;;4.23;3.93;;;;;;;;;;5046438;28;20647;-62
2022/08/12 07:47:33;;;;;;;5.53;4.13;;;;;;;;;;5047888;28;20238;-62
2022/08/12 07:50:00;;;;;;;4.77;4.37;;;;;;;;;;5044413;28;20189;-61
2022/08/12 07:52:26;;;;;;;5.07;4.67;;;;;;;;;;5046418;28;20617;-63
2022/08/12 07:54:53;;;;;;;5.57;4.00;;;;;;;;;;5039871;28;20565;-62
2022/08/12 07:57:19;;;;;;;7.17;4.67;;;;;;;;;;5037991;28;20260;-61
2022/08/12 07:59:45;;;;;;;4.63;3.90;;;;;;;;;;5037408;28;20673;-61
2022/08/12 08:02:11;;;;;;;4.53;3.83;;;;;;;;;;5044121;28;20177;-59
2022/08/12 08:04:56;;;;;;;5.20;3.67;;;;;;;;;;5046551;28;20570;-61
2022/08/12 08:07:23;;;;;;;4.37;3.80;;;;;;;;;;5019490;28;20185;-61
2022/08/12 08:09:52;;;;;;;5.20;4.00;;;;;;;;;;5038126;28;20528;-63
2022/08/12 08:15:04;;;;;;;6.87;3.70;;;;;;;;;;5046117;28;20215;-62
2022/08/12 08:17:30;;;;;;;5.03;3.13;;;;;;;;;;5048131;28;20163;-63
2022/08/12 08:19:56;;;;;;;4.70;3.67;;;;;;;;;;5021252;28;20219;-62
2022/08/12 08:22:22;;;;;;;4.60;4.03;;;;;;;;;;5026055;28;20178;-61
2022/08/12 08:24:55;;;;;;;8.80;3.73;;;;;;;;;;5010102;28;20193;-62
2022/08/12 08:27:21;;;;;;;3.73;3.40;;;;;;;;;;5026156;28;20179;-62
2022/08/12 08:29:48;;;;;;;3.93;3.53;;;;;;;;;;5019261;28;20278;-60
2022/08/12 08:32:14;;;;;;;8.43;3.57;;;;;;;;;;5025898;28;20645;-62
2022/08/12 08:34:40;;;;;;;3.30;3.10;;;;;;;;;;5030874;28;20240;-61
2022/08/12 08:37:06;;;;;;;3.70;3.40;;;;;;;;;;5032008;28;20253;-62
2022/08/12 08:39:33;;;;;;;4.03;3.65;;;;;;;;;;5022526;28;20265;-62
2022/08/12 08:44:44;;;;;;;4.13;3.72;;;;;;;;;;5035272;28;20193;-61
2022/08/12 08:47:12;;;;;;;4.20;3.25;;;;;;;;;;5025128;28;20533;-63
2022/08/12 08:49:38;;;;;;;6.28;3.35;;;;;;;;;;5012933;28;20711;-65
2022/08/12 08:52:05;;;;;;;6.40;3.78;;;;;;;;;;5026748;28;20178;-60
2022/08/12 08:54:32;;;;;;;4.85;3.08;;;;;;;;;;5030895;28;20205;-62
2022/08/12 08:57:00;;;;;;;5.78;3.38;;;;;;;;;;5033105;28;20185;-62
2022/08/12 08:59:26;;;;;;;3.47;3.17;;;;;;;;;;5029000;28;20232;-61
2022/08/12 09:01:53;;;;;;;4.28;3.10;;;;;;;;;;5029708;28;20174;-62
2022/08/12 09:04:19;;;;;;;3.88;3.35;;;;;;;;;;5010268;28;20178;-61
2022/08/12 09:06:46;;;;;;;3.55;3.22;;;;;;;;;;5010875;28;20186;-64
2022/08/12 09:09:16;;;;;;;3.00;2.80;;;;;;;;;;5028933;28;20190;-63
2022/08/12 09:14:28;;;;;;;4.32;3.10;;;;;;;;;;5028298;28;20288;-63
2022/08/12 09:16:54;;;;;;;3.00;2.80;;;;;;;;;;5027883;28;20273;-66
2022/08/12 09:19:27;;;;;;;6.93;3.10;;;;;;;;;;5025655;28;20170;-65
2022/08/12 09:21:53;;;;;;;3.67;2.95;;;;;;;;;;5044277;28;20201;-63
2022/08/12 09:24:19;;;;;;;2.88;2.67;;;;;;;;;;5027524;28;20216;-61
2022/08/12 09:26:46;;;;;;;3.33;2.97;;;;;;;;;;5045991;28;20185;-60
2022/08/12 09:29:13;;;;;;;4.25;2.88;;;;;;;;;;5050486;28;20173;-60
2022/08/12 09:31:40;;;;;;;3.17;2.97;;;;;;;;;;5044814;28;20194;-60
2022/08/12 09:34:09;;;;;;;3.00;2.80;;;;;;;;;;5048273;28;20659;-61
2022/08/12 09:36:37;;;;;;;4.03;3.10;;;;;;;;;;5044036;28;20709;-61
2022/08/12 09:39:03;;;;;;;4.35;3.28;;;;;;;;;;5047945;28;20565;-58
2022/08/12 09:41:37;;;;;;;2.97;2.70;;;;;;;;;;5053974;28;20184;-60
2022/08/12 09:46:48;;;;;;;5.18;3.15;;;;;;;;;;5048586;28;20320;-59
2022/08/12 09:49:14;;;;;;;3.67;2.90;;;;;;;;;;5050051;28;20263;-60
2022/08/12 09:51:42;;;;;;;6.93;3.75;;;;;;;;;;5048076;28;20741;-61
2022/08/12 09:54:11;;;;;;;7.13;4.70;;;;;;;;;;5049813;28;20648;-61
2022/08/12 09:56:40;;;;;;;4.07;3.67;;;;;;;;;;5047763;28;20632;-62
2022/08/12 09:59:08;;;;;;;4.60;3.70;;;;;;;;;;5048226;28;20177;-62
2022/08/12 10:01:37;;;;;;;4.10;3.80;;;;;;;;;;5048140;28;20667;-65
2022/08/12 10:04:09;;;;;;;3.70;3.47;;;;;;;;;;5029709;28;20649;-68
2022/08/12 10:06:36;;;;;;;5.60;3.20;;;;;;;;;;5046454;28;20200;-64
2022/08/12 10:09:02;;;;;;;3.73;3.37;;;;;;;;;;5049886;28;20655;-66
2022/08/12 10:14:13;;;;;;;3.53;3.33;;;;;;;;;;5057482;28;20627;-63
2022/08/12 10:16:43;;;;;;;3.20;3.00;;;;;;;;;;5047205;28;20181;-62
2022/08/12 10:19:09;;;;;;;4.30;3.60;;;;;;;;;;5027960;28;20196;-62
2022/08/12 10:21:36;;;;;;;5.17;3.30;;;;;;;;;;5046894;28;20679;-61
2022/08/12 10:24:07;;;;;;;5.07;3.10;;;;;;;;;;5045718;28;20185;-61
2022/08/12 10:32:05;;;;;;;3.65;3.35;;;;;;;;;;5042910;28;20196;-61
2022/08/12 10:34:31;;;;;;;5.30;3.58;;;;;;;;;;5045355;28;20736;-61
2022/08/12 10:36:58;;;;;;;3.25;2.95;;;;;;;;;;5047096;28;20181;-61
2022/08/12 10:39:25;;;;;;;3.80;3.50;;;;;;;;;;5047855;28;20184;-61
2022/08/12 10:44:37;;;;;;;4.37;3.97;;;;;;;;;;5049294;28;20245;-63
2022/08/12 10:47:03;;;;;;;3.30;3.00;;;;;;;;;;5046499;28;20231;-59
2022/08/12 10:49:36;;;;;;;3.60;3.30;;;;;;;;;;5047567;28;20172;-60
2022/08/12 10:52:02;;;;;;;4.97;3.33;;;;;;;;;;5049043;28;20642;-60
2022/08/12 10:54:29;;;;;;;3.63;3.10;;;;;;;;;;5031573;28;20196;-62
2022/08/12 10:56:56;;;;;;;7.30;3.40;;;;;;;;;;5047438;28;20189;-59
2022/08/12 10:59:23;;;;;;;3.65;3.35;;;;;;;;;;5047649;28;20164;-61
2022/08/12 11:01:51;;;;;;;4.05;3.47;;;;;;;;;;5029693;28;20549;-64
2022/08/12 11:04:17;;;;;;;4.35;3.22;;;;;;;;;;5034866;28;20952;-62
2022/08/12 11:06:46;;;;;;;3.92;3.53;;;;;;;;;;5041136;28;20658;-60
2022/08/12 11:09:16;;;;;;;5.35;3.50;;;;;;;;;;5038858;28;20537;-61
2022/08/12 11:11:47;;;;;;;5.22;3.00;;;;;;;;;;5045851;28;20189;-61
2022/08/12 11:14:16;;;;;;;3.40;3.10;;;;;;;;;;5066124;28;20327;-61
2022/08/12 11:16:42;;;;;;;5.25;3.22;;;;;;;;;;5033262;28;20729;-62
2022/08/12 11:19:08;;;;;;;3.35;3.05;;;;;;;;;;5038750;28;20175;-62
2022/08/12 11:21:34;;;;;;;8.13;3.60;;;;;;;;;;5048255;28;20223;-61
2022/08/12 11:24:00;;;;;;;4.38;3.30;;;;;;;;;;5048901;28;20156;-59
2022/08/12 11:26:26;;;;;;;5.68;3.13;;;;;;;;;;5045737;28;20218;-62
2022/08/12 11:28:52;;;;;;;3.60;3.40;;;;;;;;;;5043901;28;20180;-62
2022/08/12 11:31:18;;;;;;;6.30;3.28;;;;;;;;;;5045174;28;20173;-59
2022/08/12 11:33:44;;;;;;;3.50;3.25;;;;;;;;;;5056825;28;20178;-60
2022/08/12 11:36:10;;;;;;;3.45;3.15;;;;;;;;;;5047535;28;20204;-60
2022/08/12 11:38:36;;;;;;;3.63;3.33;;;;;;;;;;5047291;28;20260;-60
2022/08/12 11:41:04;;;;;;;3.35;3.13;;;;;;;;;;5046583;28;20184;-60
2022/08/12 11:43:30;;;;;;;4.78;3.10;;;;;;;;;;5054971;28;20180;-59
2022/08/12 11:45:56;;;;;;;5.05;3.08;;;;;;;;;;5066987;28;20214;-59
2022/08/12 11:48:22;;;;;;;3.92;3.63;;;;;;;;;;5045980;28;20183;-60
2022/08/12 11:50:48;;;;;;;4.43;3.00;;;;;;;;;;5047675;28;20184;-59
2022/08/12 11:53:14;;;;;;;3.67;3.38;;;;;;;;;;5047707;28;20234;-59
2022/08/12 11:55:40;;;;;;;3.42;3.10;;;;;;;;;;5047610;28;20652;-61
2022/08/12 11:58:06;;;;;;;5.35;4.90;;;;;;;;;;5046979;28;20173;-61
2022/08/12 12:00:32;;;;;;;3.10;2.90;;;;;;;;;;5039732;28;20165;-61
2022/08/12 12:02:59;;;;;;;4.60;3.17;;;;;;;;;;5049534;28;20181;-61
2022/08/12 12:05:25;;;;;;;2.85;2.72;;;;;;;;;;5014278;28;20761;-62
2022/08/12 12:07:51;;;;;;;3.15;2.95;;;;;;;;;;5031025;28;20200;-60
2022/08/12 12:10:20;;;;;;;3.38;3.17;;;;;;;;;;5049733;28;20185;-61
2022/08/12 12:12:47;;;;;;;5.82;3.88;;;;;;;;;;5050193;28;20667;-59
2022/08/12 12:15:13;;;;;;;3.80;3.13;;;;;;;;;;5056256;28;20205;-61
2022/08/12 12:17:40;;;;;;;3.92;3.15;;;;;;;;;;5034395;28;20168;-61
2022/08/12 12:20:11;;;;;;;4.97;4.45;;;;;;;;;;5042089;28;20210;-61
2022/08/12 12:22:38;;;;;;;4.93;2.97;;;;;;;;;;5045648;28;20260;-61
2022/08/12 12:25:05;;;;;;;6.53;2.92;;;;;;;;;;5051053;28;20415;-61
2022/08/12 12:27:48;;;;;;;3.78;3.10;;;;;;;;;;5033855;28;20181;-59
2022/08/12 12:30:14;;;;;;;3.50;3.20;;;;;;;;;;5032953;28;20662;-62
2022/08/12 12:32:40;;;;;;;3.35;3.05;;;;;;;;;;5046984;28;20184;-61
2022/08/12 12:35:07;;;;;;;3.33;2.80;;;;;;;;;;5051854;28;20271;-60
2022/08/12 12:37:33;;;;;;;4.53;2.80;;;;;;;;;;5049205;28;20162;-61
2022/08/12 12:40:00;;;;;;;3.83;2.70;;;;;;;;;;5046876;28;20192;-61
2022/08/12 12:42:26;;;;;;;8.30;3.10;;;;;;;;;;5048860;28;20231;-61
2022/08/12 12:44:52;;;;;;;16.98;4.13;;;;;;;;;;5043137;28;20667;-61
2022/08/12 12:47:18;;;;;;;3.50;3.20;;;;;;;;;;5044421;28;20197;-61
2022/08/12 12:49:44;;;;;;;3.17;2.88;;;;;;;;;;5030459;28;20192;-63
2022/08/12 12:52:10;;;;;;;2.85;2.65;;;;;;;;;;5049717;28;20246;-62
2022/08/12 12:54:36;;;;;;;3.72;3.42;;;;;;;;;;5048639;28;20201;-62
2022/08/12 12:57:02;;;;;;;3.40;3.10;;;;;;;;;;5047125;28;20199;-61
2022/08/12 12:59:30;;;;;;;2.95;2.67;;;;;;;;;;5045881;28;20169;-62
2022/08/12 13:02:05;;;;;;;3.28;3.03;;;;;;;;;;5040359;28;20821;-62
2022/08/12 13:04:32;;;;;;;7.10;2.92;;;;;;;;;;5044454;28;20211;-61
2022/08/12 13:07:06;;;;;;;3.15;2.83;;;;;;;;;;5048013;28;20171;-61
2022/08/12 13:09:33;;;;;;;3.88;3.50;;;;;;;;;;5048049;28;20583;-59
2022/08/12 13:11:59;;;;;;;3.55;3.30;;;;;;;;;;5025977;28;20987;-62
2022/08/12 13:14:25;;;;;;;3.30;3.00;;;;;;;;;;5050944;28;20210;-61
2022/08/12 13:16:52;;;;;;;3.58;3.15;;;;;;;;;;5060686;28;20169;-62
2022/08/12 13:19:18;;;;;;;6.45;3.00;;;;;;;;;;5019469;28;20190;-61
2022/08/12 13:22:16;;;;;;;4.13;3.60;;;;;;;;;;5016911;28;20217;-61
2022/08/12 13:24:30;;;;;;;3.65;2.78;;;;;;;;;;5048715;28;20189;-61
2022/08/12 13:26:56;;;;;;;3.10;2.90;;;;;;;;;;5050661;28;20305;-61
2022/08/12 13:29:22;;;;;;;3.15;2.95;;;;;;;;;;5046441;28;20216;-62
2022/08/12 13:31:52;;;;;;;4.75;3.08;;;;;;;;;;5033046;28;20280;-61
2022/08/12 13:34:20;;;;;;;3.83;3.38;;;;;;;;;;5043197;28;20675;-62
2022/08/12 13:36:46;;;;;;;3.72;3.42;;;;;;;;;;5051715;28;20258;-61
2022/08/12 13:39:12;;;;;;;3.40;3.10;;;;;;;;;;5049019;28;20658;-61
2022/08/12 13:41:38;;;;;;;3.85;2.92;;;;;;;;;;5029807;28;20196;-61
2022/08/12 13:44:05;;;;;;;3.15;2.85;;;;;;;;;;5046813;28;20365;-62
2022/08/12 13:46:31;;;;;;;3.08;2.80;;;;;;;;;;5028763;28;20264;-60
2022/08/12 13:48:58;;;;;;;5.57;2.80;;;;;;;;;;5027123;28;20981;-61
2022/08/12 13:51:24;;;;;;;5.18;3.13;;;;;;;;;;5047693;28;20481;-62
2022/08/12 13:53:51;;;;;;;3.95;2.90;;;;;;;;;;5029253;28;20173;-61
2022/08/12 13:56:17;;;;;;;3.55;2.88;;;;;;;;;;5043717;28;20595;-62
2022/08/12 13:58:47;;;;;;;3.53;3.22;;;;;;;;;;5033772;28;20199;-60
2022/08/12 14:01:14;;;;;;;6.53;5.50;;;;;;;;;;5051219;28;20177;-61
2022/08/12 14:03:41;;;;;;;3.72;2.80;;;;;;;;;;5041600;28;20640;-61
2022/08/12 14:06:08;;;;;;;3.30;2.92;;;;;;;;;;5047797;28;20675;-60
2022/08/12 14:08:34;;;;;;;4.10;3.35;;;;;;;;;;5044649;28;20203;-60
2022/08/12 14:11:00;;;;;;;3.78;2.70;;;;;;;;;;5035909;28;20185;-61
2022/08/12 14:13:28;;;;;;;3.45;3.15;;;;;;;;;;5039080;28;20247;-58
2022/08/12 14:15:54;;;;;;;4.38;3.30;;;;;;;;;;5041446;28;21264;-58
2022/08/12 14:18:22;;;;;;;3.53;3.22;;;;;;;;;;5046254;28;20181;-59
2022/08/12 14:21:00;;;;;;;2.80;2.60;;;;;;;;;;5037577;28;20607;-60
2022/08/12 14:23:27;;;;;;;3.13;2.90;;;;;;;;;;5042908;28;20174;-60
2022/08/12 14:25:55;;;;;;;3.35;2.90;;;;;;;;;;5026769;28;20766;-60
2022/08/12 14:28:22;;;;;;;3.10;2.80;;;;;;;;;;5042641;28;20193;-61
2022/08/12 14:30:52;;;;;;;2.90;2.67;;;;;;;;;;5045453;28;20188;-60
2022/08/12 14:33:25;;;;;;;3.78;3.45;;;;;;;;;;5046955;28;20178;-61
2022/08/12 14:35:52;;;;;;;3.65;3.30;;;;;;;;;;5047042;28;20213;-61
2022/08/12 14:38:20;;;;;;;3.47;3.28;;;;;;;;;;5047525;28;20192;-60
2022/08/12 14:40:47;;;;;;;3.30;3.00;;;;;;;;;;5047907;28;20181;-61
2022/08/12 14:43:13;;;;;;;3.17;2.83;;;;;;;;;;5049675;28;20883;-61
2022/08/12 14:45:40;;;;;;;3.05;2.83;;;;;;;;;;5050152;28;20642;-61
2022/08/12 14:48:06;;;;;;;5.90;2.85;;;;;;;;;;5025542;28;20287;-61
2022/08/12 14:50:32;;;;;;;2.80;2.60;;;;;;;;;;5047577;28;20734;-61
2022/08/12 14:52:58;;;;;;;3.10;2.90;;;;;;;;;;5048596;28;20300;-61
2022/08/12 14:55:30;;;;;;;3.42;2.67;;;;;;;;;;5051367;28;20196;-61
2022/08/12 14:57:57;;;;;;;3.17;2.90;;;;;;;;;;5048124;28;20166;-60
2022/08/12 15:03:09;;;;;;;4.13;2.95;;;;;;;;;;5042622;28;20184;-61
2022/08/12 15:05:38;;;;;;;3.05;2.83;;;;;;;;;;5048565;28;20197;-61
2022/08/12 15:08:12;;;;;;;3.25;2.97;;;;;;;;;;5032149;28;20703;-60
2022/08/12 15:10:42;;;;;;;4.35;2.67;;;;;;;;;;5046784;28;20515;-63
2022/08/12 15:13:10;;;;;;;3.33;2.60;;;;;;;;;;5031108;28;20186;-61
2022/08/12 15:15:40;;;;;;;5.10;2.95;;;;;;;;;;5046863;28;20671;-61
2022/08/12 15:18:10;;;;;;;2.95;2.75;;;;;;;;;;5042607;28;20269;-61
2022/08/12 15:20:43;;;;;;;3.72;2.85;;;;;;;;;;5047302;28;20260;-59
2022/08/12 15:23:10;;;;;;;4.05;3.83;;;;;;;;;;5046693;28;20551;-59
2022/08/12 15:25:37;;;;;;;5.40;3.15;;;;;;;;;;5049388;28;20177;-59
2022/08/12 15:28:05;;;;;;;7.60;2.95;;;;;;;;;;5048034;28;20708;-59
2022/08/12 15:30:31;;;;;;;3.13;2.92;;;;;;;;;;5051522;28;20172;-59
2022/08/12 15:32:58;;;;;;;2.80;2.60;;;;;;;;;;5044247;28;20185;-59
2022/08/12 15:35:27;;;;;;;3.97;3.08;;;;;;;;;;5028136;28;20670;-59
2022/08/12 15:37:57;;;;;;;7.82;3.30;;;;;;;;;;5050705;28;20165;-58
2022/08/12 15:40:25;;;;;;;6.70;3.10;;;;;;;;;;5050029;28;20937;-59
2022/08/12 15:42:52;;;;;;;4.32;3.10;;;;;;;;;;5050661;28;20180;-58
2022/08/12 15:45:18;;;;;;;3.75;3.45;;;;;;;;;;5056785;28;20184;-59
2022/08/12 15:47:44;;;;;;;3.25;2.95;;;;;;;;;;5052808;28;20639;-58
2022/08/12 15:50:10;;;;;;;3.22;2.70;;;;;;;;;;5050866;28;20311;-58
2022/08/12 15:52:36;;;;;;;3.38;2.78;;;;;;;;;;5056137;28;20173;-59
2022/08/12 15:55:02;;;;;;;5.95;2.90;;;;;;;;;;5055291;28;20676;-59
2022/08/12 15:57:28;;;;;;;3.55;2.97;;;;;;;;;;5056706;28;20620;-59
2022/08/12 15:59:55;;;;;;;3.50;3.20;;;;;;;;;;5050021;28;20650;-59
2022/08/12 16:02:21;;;;;;;3.60;2.38;;;;;;;;;;5037357;28;20180;-59
2022/08/12 16:04:49;;;;;;;7.65;3.08;;;;;;;;;;5054053;28;20205;-59
2022/08/12 16:07:19;;;;;;;3.38;2.95;;;;;;;;;;5056381;28;20185;-59
2022/08/12 16:09:45;;;;;;;6.15;2.92;;;;;;;;;;5050873;28;20176;-59
2022/08/12 16:12:11;;;;;;;3.83;2.60;;;;;;;;;;5054953;28;20548;-60
2022/08/12 16:14:37;;;;;;;4.15;2.97;;;;;;;;;;5052904;28;20270;-59
2022/08/12 16:17:04;;;;;;;3.05;2.75;;;;;;;;;;5047434;28;20581;-58
2022/08/12 16:19:30;;;;;;;6.55;2.80;;;;;;;;;;5038472;28;20172;-58
2022/08/12 16:21:57;;;;;;;3.17;2.60;;;;;;;;;;5051676;28;20690;-62
2022/08/12 16:24:23;;;;;;;5.25;2.92;;;;;;;;;;5051973;28;20651;-59
2022/08/12 16:26:49;;;;;;;2.97;2.70;;;;;;;;;;5051663;28;20173;-59
2022/08/12 16:29:18;;;;;;;2.95;2.75;;;;;;;;;;5053453;28;20185;-59
2022/08/12 16:31:44;;;;;;;2.90;2.50;;;;;;;;;;5049251;28;20652;-58
2022/08/12 16:34:15;;;;;;;5.10;2.90;;;;;;;;;;5040902;28;20663;-58
2022/08/12 16:36:43;;;;;;;3.50;3.20;;;;;;;;;;5037122;28;20196;-59